DLH7YF EDDM-EPWA
Flight info
| Callsign | DLH7YF |
|---|---|
| Flight time | 1h 17m |
| Altitude | 35000 |
| Route | BIBAG2E BIBAG Y133 BEPAS DCT LEGAZ DCT LAGAR DCT OKENO DCT GOGUS DCT AGAVA |
| Aircraft | A320/M-SDE3FGHIRWY/LB1 |
Departure
| Time | 2026-05-01 13:10 |
|---|---|
| Airport | Munich Airport (EDDM) |
Arrival
| Time | 2026-05-01 14:28 |
|---|---|
| Airport | Warsaw Chopin Airport (EPWA) |
| Time | Latitude | Longitude | Altitude | Speed | Heading |
|---|---|---|---|---|---|
| 2026-05-01 12:22 | 48.35456 | 11.79307 | 1476 ft | 0 kts | 263° |
| 2026-05-01 12:55 | 48.35457 | 11.79318 | 1485 ft | 4 kts | 263° |
| 2026-05-01 12:56 | 48.35460 | 11.79359 | 1497 ft | 4 kts | 262° |
| 2026-05-01 12:56 | 48.35463 | 11.79391 | 1477 ft | 3 kts | 264° |
| 2026-05-01 12:56 | 48.35462 | 11.79430 | 1476 ft | 4 kts | 295° |
| 2026-05-01 12:56 | 48.35447 | 11.79455 | 1471 ft | 4 kts | 351° |
| 2026-05-01 12:57 | 48.35425 | 11.79459 | 1474 ft | 1 kts | 353° |
| 2026-05-01 13:00 | 48.35397 | 11.79520 | 1480 ft | 8 kts | 152° |
| 2026-05-01 13:00 | 48.35345 | 11.79542 | 1475 ft | 7 kts | 170° |
| 2026-05-01 13:01 | 48.35238 | 11.79559 | 1477 ft | 11 kts | 174° |
| 2026-05-01 13:01 | 48.35167 | 11.79571 | 1481 ft | 10 kts | 173° |
| 2026-05-01 13:01 | 48.35002 | 11.79578 | 1485 ft | 12 kts | 202° |
| 2026-05-01 13:02 | 48.34915 | 11.79551 | 1474 ft | 13 kts | 170° |
| 2026-05-01 13:07 | 48.34481 | 11.75528 | 1475 ft | 22 kts | 265° |
| 2026-05-01 13:07 | 48.34468 | 11.75310 | 1485 ft | 20 kts | 264° |
| 2026-05-01 13:07 | 48.34384 | 11.75213 | 1482 ft | 15 kts | 184° |
| 2026-05-01 13:08 | 48.34274 | 11.75241 | 1482 ft | 16 kts | 172° |
| 2026-05-01 13:08 | 48.34155 | 11.75264 | 1478 ft | 18 kts | 173° |
| 2026-05-01 13:08 | 48.34082 | 11.75318 | 1485 ft | 9 kts | 81° |
| 2026-05-01 13:08 | 48.34085 | 11.75340 | 1485 ft | 0 kts | 81° |
| 2026-05-01 13:09 | 48.34085 | 11.75341 | 1485 ft | 0 kts | 81° |
| 2026-05-01 13:10 | 48.34095 | 11.75458 | 1482 ft | 39 kts | 83° |
| 2026-05-01 13:10 | 48.34154 | 11.76226 | 1482 ft | 106 kts | 83° |
| 2026-05-01 13:10 | 48.34260 | 11.77593 | 1540 ft | 150 kts | 83° |
| 2026-05-01 13:10 | 48.34371 | 11.79132 | 2281 ft | 147 kts | 82° |
| 2026-05-01 13:11 | 48.34474 | 11.80693 | 2893 ft | 159 kts | 84° |
| 2026-05-01 13:11 | 48.34589 | 11.82455 | 3325 ft | 177 kts | 84° |
| 2026-05-01 13:11 | 48.34729 | 11.84373 | 3835 ft | 192 kts | 83° |
| 2026-05-01 13:11 | 48.34896 | 11.86473 | 4244 ft | 217 kts | 83° |
| 2026-05-01 13:12 | 48.35084 | 11.88781 | 5014 ft | 226 kts | 84° |
| 2026-05-01 13:12 | 48.35279 | 11.91163 | 5841 ft | 232 kts | 84° |
| 2026-05-01 13:12 | 48.35279 | 11.93611 | 6627 ft | 239 kts | 104° |
| 2026-05-01 13:12 | 48.34894 | 11.95248 | 6985 ft | 252 kts | 112° |
| 2026-05-01 13:13 | 48.33939 | 11.98534 | 7973 ft | 263 kts | 112° |
| 2026-05-01 13:13 | 48.33430 | 12.00229 | 8586 ft | 265 kts | 113° |
| 2026-05-01 13:13 | 48.32659 | 12.02786 | 9413 ft | 271 kts | 113° |
| 2026-05-01 13:13 | 48.31874 | 12.05397 | 10214 ft | 277 kts | 112° |
| 2026-05-01 13:14 | 48.31090 | 12.08020 | 10983 ft | 280 kts | 112° |
| 2026-05-01 13:14 | 48.30287 | 12.10719 | 11755 ft | 284 kts | 110° |
| 2026-05-01 13:14 | 48.29479 | 12.13448 | 12555 ft | 288 kts | 110° |
| 2026-05-01 13:14 | 48.28663 | 12.16217 | 13333 ft | 291 kts | 110° |
| 2026-05-01 13:15 | 48.27837 | 12.19020 | 14076 ft | 296 kts | 110° |
| 2026-05-01 13:15 | 48.27007 | 12.21822 | 14758 ft | 299 kts | 110° |
| 2026-05-01 13:15 | 48.26156 | 12.24691 | 15450 ft | 302 kts | 110° |
| 2026-05-01 13:15 | 48.25299 | 12.27579 | 16134 ft | 304 kts | 110° |
| 2026-05-01 13:16 | 48.24581 | 12.30559 | 16813 ft | 304 kts | 98° |
| 2026-05-01 13:16 | 48.24419 | 12.33665 | 17481 ft | 302 kts | 83° |
| 2026-05-01 13:16 | 48.24827 | 12.36813 | 17773 ft | 317 kts | 69° |
| 2026-05-01 13:17 | 48.28373 | 12.46117 | 18445 ft | 361 kts | 59° |
| 2026-05-01 13:17 | 48.29674 | 12.49386 | 18992 ft | 365 kts | 59° |
| 2026-05-01 13:18 | 48.32272 | 12.55972 | 20024 ft | 371 kts | 59° |
| 2026-05-01 13:18 | 48.33588 | 12.59319 | 20555 ft | 373 kts | 59° |
| 2026-05-01 13:18 | 48.34915 | 12.62705 | 21078 ft | 376 kts | 59° |
| 2026-05-01 13:18 | 48.36250 | 12.66118 | 21588 ft | 379 kts | 59° |
| 2026-05-01 13:19 | 48.37590 | 12.69553 | 22090 ft | 382 kts | 59° |
| 2026-05-01 13:19 | 48.38938 | 12.73017 | 22588 ft | 384 kts | 59° |
| 2026-05-01 13:19 | 48.40988 | 12.80460 | 23534 ft | 391 kts | 69° |
| 2026-05-01 13:20 | 48.41889 | 12.84342 | 24003 ft | 394 kts | 69° |
| 2026-05-01 13:20 | 48.42796 | 12.88247 | 24379 ft | 397 kts | 69° |
| 2026-05-01 13:20 | 48.43710 | 12.92186 | 24758 ft | 399 kts | 69° |
| 2026-05-01 13:21 | 48.45549 | 13.00149 | 25511 ft | 404 kts | 69° |
| 2026-05-01 13:21 | 48.46471 | 13.04160 | 25884 ft | 406 kts | 69° |
| 2026-05-01 13:21 | 48.47461 | 13.08161 | 26292 ft | 406 kts | 63° |
| 2026-05-01 13:21 | 48.48835 | 13.11810 | 26668 ft | 406 kts | 53° |
| 2026-05-01 13:22 | 48.50653 | 13.15067 | 27026 ft | 407 kts | 44° |
| 2026-05-01 13:22 | 48.52843 | 13.17794 | 27380 ft | 409 kts | 34° |
| 2026-05-01 13:22 | 48.55284 | 13.20023 | 27727 ft | 411 kts | 31° |
| 2026-05-01 13:22 | 48.57759 | 13.22218 | 28086 ft | 413 kts | 31° |
| 2026-05-01 13:23 | 48.60243 | 13.24428 | 28421 ft | 415 kts | 31° |
| 2026-05-01 13:23 | 48.62703 | 13.26622 | 28754 ft | 417 kts | 31° |
| 2026-05-01 13:23 | 48.65219 | 13.28865 | 29067 ft | 419 kts | 31° |
| 2026-05-01 13:23 | 48.67744 | 13.31116 | 29385 ft | 421 kts | 31° |
| 2026-05-01 13:24 | 48.70265 | 13.33367 | 29691 ft | 423 kts | 31° |
| 2026-05-01 13:24 | 48.72804 | 13.35640 | 29971 ft | 425 kts | 31° |
| 2026-05-01 13:24 | 48.75359 | 13.37935 | 30301 ft | 426 kts | 31° |
| 2026-05-01 13:25 | 48.80423 | 13.42484 | 31039 ft | 424 kts | 31° |
| 2026-05-01 13:25 | 48.82957 | 13.44764 | 31385 ft | 423 kts | 31° |
| 2026-05-01 13:25 | 48.85490 | 13.47049 | 31739 ft | 423 kts | 31° |
| 2026-05-01 13:25 | 48.88013 | 13.49326 | 32098 ft | 422 kts | 31° |
| 2026-05-01 13:26 | 48.90574 | 13.51495 | 32440 ft | 421 kts | 26° |
| 2026-05-01 13:26 | 48.93234 | 13.53368 | 32790 ft | 421 kts | 25° |
| 2026-05-01 13:26 | 48.95891 | 13.55236 | 33115 ft | 420 kts | 25° |
| 2026-05-01 13:26 | 48.98560 | 13.57117 | 33430 ft | 421 kts | 25° |
| 2026-05-01 13:27 | 49.01189 | 13.58976 | 33752 ft | 421 kts | 25° |
| 2026-05-01 13:27 | 49.03846 | 13.60860 | 34088 ft | 420 kts | 25° |
| 2026-05-01 13:27 | 49.09156 | 13.64627 | 34731 ft | 419 kts | 25° |
| 2026-05-01 13:28 | 49.14445 | 13.68387 | 35329 ft | 418 kts | 25° |
| 2026-05-01 13:28 | 49.17082 | 13.70265 | 35608 ft | 418 kts | 25° |
| 2026-05-01 13:29 | 49.22352 | 13.74034 | 36137 ft | 417 kts | 25° |
| 2026-05-01 13:29 | 49.27588 | 13.77780 | 36392 ft | 419 kts | 25° |
| 2026-05-01 13:31 | 49.43439 | 13.89180 | 36393 ft | 419 kts | 25° |
| 2026-05-01 13:32 | 49.56621 | 13.98712 | 36393 ft | 419 kts | 25° |
| 2026-05-01 13:33 | 49.69777 | 14.08274 | 36388 ft | 419 kts | 25° |
| 2026-05-01 13:34 | 49.80326 | 14.16004 | 36408 ft | 419 kts | 26° |
| 2026-05-01 13:35 | 49.88183 | 14.21786 | 36404 ft | 418 kts | 25° |
| 2026-05-01 13:36 | 49.96058 | 14.27591 | 36397 ft | 417 kts | 26° |
| 2026-05-01 13:36 | 50.03925 | 14.33412 | 36390 ft | 417 kts | 26° |
| 2026-05-01 13:37 | 50.09125 | 14.37261 | 36388 ft | 416 kts | 25° |
| 2026-05-01 13:37 | 50.14360 | 14.41155 | 36385 ft | 416 kts | 26° |
| 2026-05-01 13:38 | 50.22210 | 14.47010 | 36382 ft | 416 kts | 26° |
| 2026-05-01 13:39 | 50.27414 | 14.50910 | 36381 ft | 417 kts | 26° |
| 2026-05-01 13:39 | 50.32652 | 14.54851 | 36384 ft | 417 kts | 26° |
| 2026-05-01 13:40 | 50.37882 | 14.58788 | 36387 ft | 417 kts | 26° |
| 2026-05-01 13:40 | 50.43111 | 14.62739 | 36386 ft | 417 kts | 26° |
| 2026-05-01 13:41 | 50.48313 | 14.66675 | 36387 ft | 417 kts | 26° |
| 2026-05-01 13:41 | 50.53542 | 14.70643 | 36383 ft | 417 kts | 26° |
| 2026-05-01 13:42 | 50.58774 | 14.74616 | 36385 ft | 417 kts | 26° |
| 2026-05-01 13:42 | 50.63713 | 14.79253 | 36372 ft | 417 kts | 40° |
| 2026-05-01 13:43 | 50.67357 | 14.86354 | 36370 ft | 421 kts | 60° |
| 2026-05-01 13:43 | 50.69591 | 14.94950 | 36368 ft | 423 kts | 66° |
| 2026-05-01 13:44 | 50.71666 | 15.03583 | 36362 ft | 424 kts | 66° |
| 2026-05-01 13:44 | 50.73751 | 15.12305 | 36368 ft | 424 kts | 66° |
| 2026-05-01 13:45 | 50.75820 | 15.21025 | 36387 ft | 423 kts | 66° |
| 2026-05-01 13:45 | 50.77877 | 15.29732 | 36384 ft | 422 kts | 66° |
| 2026-05-01 13:46 | 50.79929 | 15.38384 | 36370 ft | 422 kts | 66° |
| 2026-05-01 13:46 | 50.82113 | 15.47016 | 36360 ft | 422 kts | 65° |
| 2026-05-01 13:47 | 50.84371 | 15.55613 | 36366 ft | 423 kts | 65° |
| 2026-05-01 13:47 | 50.86602 | 15.64230 | 36362 ft | 423 kts | 65° |
| 2026-05-01 13:48 | 50.88786 | 15.72841 | 36389 ft | 424 kts | 65° |
| 2026-05-01 13:48 | 50.90971 | 15.81517 | 36386 ft | 423 kts | 65° |
| 2026-05-01 13:49 | 50.93162 | 15.90184 | 36374 ft | 422 kts | 65° |
| 2026-05-01 13:49 | 50.95325 | 15.98787 | 36360 ft | 422 kts | 65° |
| 2026-05-01 13:50 | 50.97501 | 16.07450 | 36355 ft | 422 kts | 65° |
| 2026-05-01 13:50 | 50.99668 | 16.16122 | 36353 ft | 422 kts | 65° |
| 2026-05-01 13:51 | 51.01818 | 16.24761 | 36355 ft | 422 kts | 65° |
| 2026-05-01 13:51 | 51.03971 | 16.33464 | 36381 ft | 422 kts | 65° |
| 2026-05-01 13:52 | 51.06095 | 16.42098 | 36368 ft | 421 kts | 65° |
| 2026-05-01 13:52 | 51.08223 | 16.50775 | 36362 ft | 420 kts | 65° |
| 2026-05-01 13:53 | 51.10346 | 16.59451 | 36349 ft | 420 kts | 65° |
| 2026-05-01 13:53 | 51.13519 | 16.72459 | 36346 ft | 420 kts | 65° |
| 2026-05-01 13:54 | 51.15615 | 16.81085 | 36345 ft | 420 kts | 65° |
| 2026-05-01 13:54 | 51.17709 | 16.89795 | 36358 ft | 419 kts | 65° |
| 2026-05-01 13:55 | 51.19783 | 16.98453 | 36352 ft | 419 kts | 65° |
| 2026-05-01 13:55 | 51.21867 | 17.07128 | 36349 ft | 418 kts | 65° |
| 2026-05-01 13:56 | 51.23928 | 17.15772 | 36064 ft | 418 kts | 65° |
| 2026-05-01 13:56 | 51.24959 | 17.20110 | 35809 ft | 418 kts | 65° |
| 2026-05-01 13:56 | 51.25989 | 17.24451 | 35562 ft | 418 kts | 65° |
| 2026-05-01 13:57 | 51.27021 | 17.28810 | 35312 ft | 418 kts | 65° |
| 2026-05-01 13:57 | 51.27704 | 17.31699 | 35149 ft | 419 kts | 65° |
| 2026-05-01 13:57 | 51.29068 | 17.37477 | 34837 ft | 419 kts | 65° |
| 2026-05-01 13:57 | 51.30099 | 17.41847 | 34590 ft | 419 kts | 65° |
| 2026-05-01 13:58 | 51.31125 | 17.46209 | 34369 ft | 418 kts | 65° |
| 2026-05-01 13:58 | 51.32139 | 17.50549 | 34103 ft | 417 kts | 66° |
| 2026-05-01 13:58 | 51.33149 | 17.54893 | 33825 ft | 417 kts | 66° |
| 2026-05-01 13:58 | 51.34164 | 17.59240 | 33551 ft | 417 kts | 66° |
| 2026-05-01 13:59 | 51.35181 | 17.63587 | 33276 ft | 417 kts | 66° |
| 2026-05-01 13:59 | 51.36196 | 17.67941 | 33011 ft | 417 kts | 66° |
| 2026-05-01 13:59 | 51.37206 | 17.72298 | 32758 ft | 417 kts | 66° |
| 2026-05-01 13:59 | 51.38201 | 17.76606 | 32489 ft | 418 kts | 66° |
| 2026-05-01 14:00 | 51.39209 | 17.80977 | 32230 ft | 418 kts | 66° |
| 2026-05-01 14:00 | 51.40216 | 17.85348 | 31970 ft | 418 kts | 66° |
| 2026-05-01 14:00 | 51.41224 | 17.89729 | 31712 ft | 418 kts | 66° |
| 2026-05-01 14:00 | 51.42229 | 17.94109 | 31459 ft | 418 kts | 66° |
| 2026-05-01 14:01 | 51.43219 | 17.98426 | 31211 ft | 419 kts | 67° |
| 2026-05-01 14:01 | 51.44226 | 18.02819 | 30991 ft | 419 kts | 67° |
| 2026-05-01 14:01 | 51.45226 | 18.07196 | 30747 ft | 417 kts | 67° |
| 2026-05-01 14:01 | 51.46221 | 18.11554 | 30498 ft | 416 kts | 67° |
| 2026-05-01 14:02 | 51.46878 | 18.14443 | 30353 ft | 415 kts | 67° |
| 2026-05-01 14:02 | 51.47866 | 18.18809 | 30315 ft | 415 kts | 67° |
| 2026-05-01 14:02 | 51.50155 | 18.28957 | 30330 ft | 416 kts | 67° |
| 2026-05-01 14:03 | 51.51803 | 18.36277 | 30324 ft | 416 kts | 67° |
| 2026-05-01 14:03 | 51.53758 | 18.44973 | 30327 ft | 416 kts | 67° |
| 2026-05-01 14:04 | 51.55719 | 18.53741 | 30322 ft | 416 kts | 67° |
| 2026-05-01 14:04 | 51.56993 | 18.62861 | 30352 ft | 423 kts | 82° |
| 2026-05-01 14:05 | 51.57141 | 18.72264 | 30323 ft | 422 kts | 84° |
| 2026-05-01 14:05 | 51.57270 | 18.81714 | 30323 ft | 422 kts | 84° |
| 2026-05-01 14:06 | 51.57392 | 18.91147 | 30324 ft | 422 kts | 84° |
| 2026-05-01 14:06 | 51.57496 | 19.00583 | 30325 ft | 422 kts | 84° |
| 2026-05-01 14:07 | 51.57590 | 19.10025 | 30324 ft | 422 kts | 84° |
| 2026-05-01 14:08 | 51.57721 | 19.24135 | 30323 ft | 422 kts | 84° |
| 2026-05-01 14:08 | 51.57800 | 19.33598 | 30326 ft | 422 kts | 85° |
| 2026-05-01 14:09 | 51.57870 | 19.43043 | 30289 ft | 422 kts | 84° |
| 2026-05-01 14:09 | 51.57905 | 19.47700 | 29277 ft | 423 kts | 85° |
| 2026-05-01 14:09 | 51.57942 | 19.52480 | 28049 ft | 428 kts | 85° |
| 2026-05-01 14:09 | 51.57974 | 19.57278 | 27116 ft | 428 kts | 85° |
| 2026-05-01 14:10 | 51.58001 | 19.62052 | 26295 ft | 424 kts | 85° |
| 2026-05-01 14:10 | 51.58024 | 19.66709 | 25575 ft | 419 kts | 85° |
| 2026-05-01 14:10 | 51.58042 | 19.71367 | 24845 ft | 415 kts | 85° |
| 2026-05-01 14:10 | 51.58058 | 19.75991 | 24115 ft | 412 kts | 85° |
| 2026-05-01 14:11 | 51.58075 | 19.80591 | 23315 ft | 409 kts | 85° |
| 2026-05-01 14:11 | 51.58115 | 19.89672 | 21884 ft | 401 kts | 85° |
| 2026-05-01 14:11 | 51.58126 | 19.94021 | 21699 ft | 385 kts | 84° |
| 2026-05-01 14:12 | 51.58110 | 19.98255 | 21564 ft | 370 kts | 86° |
| 2026-05-01 14:12 | 51.58020 | 20.02323 | 21257 ft | 361 kts | 87° |
| 2026-05-01 14:12 | 51.57886 | 20.06328 | 20782 ft | 357 kts | 88° |
| 2026-05-01 14:12 | 51.57737 | 20.10297 | 20277 ft | 354 kts | 88° |
| 2026-05-01 14:13 | 51.57590 | 20.14227 | 19786 ft | 351 kts | 87° |
| 2026-05-01 14:13 | 51.57448 | 20.18133 | 19321 ft | 349 kts | 87° |
| 2026-05-01 14:13 | 51.57311 | 20.22015 | 18848 ft | 347 kts | 87° |
| 2026-05-01 14:13 | 51.57179 | 20.25878 | 18340 ft | 345 kts | 87° |
| 2026-05-01 14:14 | 51.57052 | 20.29668 | 17828 ft | 342 kts | 87° |
| 2026-05-01 14:14 | 51.56923 | 20.33476 | 17327 ft | 340 kts | 87° |
| 2026-05-01 14:14 | 51.56797 | 20.37257 | 16845 ft | 338 kts | 87° |
| 2026-05-01 14:14 | 51.56679 | 20.41018 | 16372 ft | 334 kts | 85° |
| 2026-05-01 14:15 | 51.56866 | 20.44685 | 15940 ft | 324 kts | 74° |
| 2026-05-01 14:15 | 51.57490 | 20.48119 | 15638 ft | 315 kts | 64° |
| 2026-05-01 14:15 | 51.58342 | 20.51359 | 15395 ft | 314 kts | 63° |
| 2026-05-01 14:15 | 51.59178 | 20.54555 | 15291 ft | 313 kts | 63° |
| 2026-05-01 14:16 | 51.60018 | 20.57792 | 15171 ft | 313 kts | 63° |
| 2026-05-01 14:16 | 51.60853 | 20.61025 | 14737 ft | 311 kts | 63° |
| 2026-05-01 14:16 | 51.61680 | 20.64230 | 14330 ft | 308 kts | 63° |
| 2026-05-01 14:16 | 51.62500 | 20.67410 | 13885 ft | 306 kts | 64° |
| 2026-05-01 14:17 | 51.63315 | 20.70573 | 13386 ft | 305 kts | 63° |
| 2026-05-01 14:17 | 51.64128 | 20.73721 | 12920 ft | 303 kts | 63° |
| 2026-05-01 14:17 | 51.64924 | 20.76814 | 12457 ft | 303 kts | 64° |
| 2026-05-01 14:17 | 51.65730 | 20.79948 | 12245 ft | 303 kts | 63° |
| 2026-05-01 14:18 | 51.66537 | 20.83096 | 11991 ft | 303 kts | 64° |
| 2026-05-01 14:18 | 51.67365 | 20.86209 | 11735 ft | 301 kts | 59° |
| 2026-05-01 14:18 | 51.68527 | 20.88972 | 11481 ft | 296 kts | 46° |
| 2026-05-01 14:18 | 51.69507 | 20.90498 | 11320 ft | 295 kts | 37° |
| 2026-05-01 14:19 | 51.71759 | 20.93031 | 10606 ft | 300 kts | 34° |
| 2026-05-01 14:19 | 51.73473 | 20.94785 | 10295 ft | 279 kts | 26° |
| 2026-05-01 14:19 | 51.75147 | 20.96108 | 10026 ft | 260 kts | 26° |
| 2026-05-01 14:19 | 51.76746 | 20.97394 | 9423 ft | 255 kts | 26° |
| 2026-05-01 14:20 | 51.78332 | 20.98677 | 8725 ft | 254 kts | 26° |
| 2026-05-01 14:20 | 51.81506 | 21.01238 | 7315 ft | 255 kts | 26° |
| 2026-05-01 14:20 | 51.83098 | 21.02521 | 6637 ft | 256 kts | 26° |
| 2026-05-01 14:21 | 51.84688 | 21.03803 | 5954 ft | 254 kts | 25° |
| 2026-05-01 14:21 | 51.86254 | 21.05069 | 5268 ft | 254 kts | 25° |
| 2026-05-01 14:21 | 51.87839 | 21.06352 | 4590 ft | 252 kts | 25° |
| 2026-05-01 14:22 | 51.90959 | 21.08878 | 3830 ft | 247 kts | 25° |
| 2026-05-01 14:22 | 51.92462 | 21.10094 | 3691 ft | 236 kts | 26° |
| 2026-05-01 14:22 | 51.93900 | 21.11253 | 3571 ft | 226 kts | 25° |
| 2026-05-01 14:22 | 51.95280 | 21.12358 | 3365 ft | 218 kts | 22° |
| 2026-05-01 14:23 | 51.96720 | 21.12927 | 3094 ft | 215 kts | 2° |
| 2026-05-01 14:23 | 51.98185 | 21.12607 | 2971 ft | 215 kts | 341° |
| 2026-05-01 14:23 | 51.99549 | 21.11543 | 2996 ft | 219 kts | 333° |
| 2026-05-01 14:23 | 52.00892 | 21.10339 | 3001 ft | 221 kts | 332° |
| 2026-05-01 14:24 | 52.02209 | 21.09189 | 2994 ft | 208 kts | 334° |
| 2026-05-01 14:24 | 52.03455 | 21.08120 | 2972 ft | 195 kts | 334° |
| 2026-05-01 14:24 | 52.04616 | 21.07132 | 2861 ft | 182 kts | 334° |
| 2026-05-01 14:24 | 52.05717 | 21.06176 | 2606 ft | 179 kts | 333° |
| 2026-05-01 14:25 | 52.06810 | 21.05215 | 2323 ft | 179 kts | 334° |
| 2026-05-01 14:25 | 52.07869 | 21.04278 | 2040 ft | 166 kts | 334° |
| 2026-05-01 14:25 | 52.08835 | 21.03446 | 1841 ft | 153 kts | 334° |
| 2026-05-01 14:25 | 52.09736 | 21.02652 | 1654 ft | 140 kts | 334° |
| 2026-05-01 14:26 | 52.10556 | 21.01939 | 1473 ft | 129 kts | 334° |
| 2026-05-01 14:26 | 52.12105 | 21.00593 | 1127 ft | 128 kts | 334° |
| 2026-05-01 14:26 | 52.12893 | 20.99914 | 958 ft | 128 kts | 334° |
| 2026-05-01 14:27 | 52.13681 | 20.99237 | 767 ft | 127 kts | 332° |
| 2026-05-01 14:27 | 52.14458 | 20.98566 | 619 ft | 125 kts | 332° |
| 2026-05-01 14:27 | 52.15223 | 20.97889 | 433 ft | 125 kts | 328° |
| 2026-05-01 14:28 | 52.16598 | 20.96690 | 339 ft | 76 kts | 332° |
| 2026-05-01 14:28 | 52.16902 | 20.96513 | 335 ft | 34 kts | 355° |
| 2026-05-01 14:28 | 52.17064 | 20.96532 | 338 ft | 17 kts | 33° |
| 2026-05-01 14:28 | 52.17132 | 20.96692 | 336 ft | 15 kts | 61° |
| 2026-05-01 14:29 | 52.17156 | 20.96831 | 339 ft | 11 kts | 115° |
| 2026-05-01 14:29 | 52.17116 | 20.96884 | 337 ft | 5 kts | 128° |
| 2026-05-01 14:30 | 52.17140 | 20.96985 | 339 ft | 2 kts | 60° |
| 2026-05-01 14:30 | 52.17143 | 20.96993 | 339 ft | 0 kts | 61° |